Archival Weather

Václav Havel Intl Apt

Prague, Czechia (LKPR)

Report from: Monday, May 29, 2023 11:30 AM CEST
Current time: Sunday, July 14, 2024 11:52 AM CEST

Current weather – Weather history – Daily summaries
Weather forecast

Temperature19.0°C (66.2°F)
Dew point3.0°C (37.4°F)
Winds 7 kts (3.6 m/s, 8.1 mph) Vrb
Winds variableWinds variable from North (359.999999°) to South-Southeast (150°)
Clouds Sky clear
Altimeter30.12 in.Hg (1020 mB)
Relative humidity35 %
Density altitude357 ft. (109 m)
Remarks Ceiling and visibility OK
No significant changes expected in the next two hours
Flight conditions Visual Meteorological Conditions
Raw dataLKPR 290930Z 05007KT 360V150 CAVOK 19/03 Q1020 NOSIG
An error has occurred. This application may no longer respond until reloaded. Reload 🗙